Time;durP1;ratioP1;P1;durP2;ratioP2;P2;SDS_P1;SDS_P2;PMS_P1;PMS_P2;Temp;Humidity;BMP_temperature;BMP_pressure;BME280_temperature;BME280_humidity;BME280_pressure;Samples;Min_cycle;Max_cycle;Signal;HPM_P1;HPM_P2
2021/12/07 00:02:20;;;;;;;;;;;0.90;99.90;;;;;;5090057;28;19936;-85
2021/12/07 00:04:47;;;;;;;;;;;0.90;99.90;;;;;;5091602;28;19925;-83
2021/12/07 00:07:14;;;;;;;;;;;0.70;99.90;;;;;;5083481;28;19931;-83
2021/12/07 00:09:44;;;;;;;;;;;0.80;99.90;;;;;;5084972;28;20345;-84
2021/12/07 00:12:10;;;;;;;;;;;0.50;99.90;;;;;;5081764;28;20395;-84
2021/12/07 00:14:40;;;;;;;;;;;0.90;99.90;;;;;;5081903;28;19974;-83
2021/12/07 00:17:07;;;;;;;;;;;-0.40;99.90;;;;;;5092302;28;19925;-81
2021/12/07 00:19:34;;;;;;;;;;;1.00;99.90;;;;;;5085085;28;19954;-82
2021/12/07 00:22:01;;;;;;;;;;;0.90;99.90;;;;;;5083652;28;19924;-84
2021/12/07 00:24:27;;;;;;;;;;;1.00;99.90;;;;;;5081295;28;19925;-83
2021/12/07 00:26:54;;;;;;;;;;;0.80;99.90;;;;;;5080183;28;19925;-82
2021/12/07 00:29:20;;;;;;;;;;;0.30;99.90;;;;;;5081117;28;19984;-83
2021/12/07 00:31:53;;;;;;;;;;;0.80;99.90;;;;;;5085837;28;19946;-84
2021/12/07 00:34:37;;;;;;;;;;;0.70;99.90;;;;;;5089912;28;19998;-85
2021/12/07 00:37:04;;;;;;;;;;;0.60;99.90;;;;;;5100257;28;19912;-82
2021/12/07 00:39:31;;;;;;;;;;;0.60;99.90;;;;;;5091243;28;19928;-85
2021/12/07 00:41:58;;;;;;;;;;;0.60;99.90;;;;;;5098009;28;19912;-84
2021/12/07 00:44:26;;;;;;;;;;;0.50;99.90;;;;;;5099947;28;19939;-83
2021/12/07 00:46:54;;;;;;;;;;;0.50;99.90;;;;;;5099847;28;19913;-81
2021/12/07 00:49:21;;;;;;;;;;;0.50;99.90;;;;;;5096690;28;19929;-85
2021/12/07 00:51:47;;;;;;;;;;;0.20;99.90;;;;;;5087784;28;19924;-84
2021/12/07 00:54:14;;;;;;;;;;;0.40;99.90;;;;;;5097832;28;19924;-85
2021/12/07 00:56:41;;;;;;;;;;;-0.10;99.90;;;;;;5099376;28;19935;-86
2021/12/07 00:59:08;;;;;;;;;;;0.40;99.90;;;;;;5098909;28;19913;-83
2021/12/07 01:01:34;;;;;;;;;;;1.00;99.90;;;;;;5098424;28;19912;-85
2021/12/07 01:04:02;;;;;;;;;;;0.40;99.90;;;;;;5090877;28;19924;-87
2021/12/07 01:06:32;;;;;;;;;;;0.30;99.90;;;;;;5089175;28;19924;-86
2021/12/07 01:09:12;;;;;;;;;;;0.10;99.90;;;;;;5089889;28;19924;-86
2021/12/07 01:25:41;;;;;;;;;;;0.10;99.90;;;;;;5084353;28;19974;-84
2021/12/07 01:28:16;;;;;;;;;;;0.10;99.90;;;;;;5086716;28;19924;-84
2021/12/07 01:30:50;;;;;;;;;;;-0.60;99.90;;;;;;5086561;28;19971;-85
2021/12/07 01:33:35;;;;;;;;;;;0.20;99.90;;;;;;5089223;28;19928;-85
2021/12/07 01:36:19;;;;;;;;;;;0.20;99.90;;;;;;5091556;28;19964;-86
2021/12/07 01:42:44;;;;;;;;;;;0.10;99.90;;;;;;5091909;28;19970;-86
2021/12/07 01:44:42;;;;;;;;;;;0.10;99.90;;;;;;5092802;28;19984;-86
2021/12/07 01:47:32;;;;;;;;;;;0.00;99.90;;;;;;5091884;28;19921;-86
2021/12/07 01:53:02;;;;;;;;;;;0.00;99.90;;;;;;5091431;28;19924;-85
2021/12/07 02:01:00;;;;;;;;;;;-0.10;99.90;;;;;;5093223;28;19930;-84
2021/12/07 02:03:27;;;;;;;;;;;-0.10;99.90;;;;;;5093741;28;19924;-85
2021/12/07 02:05:53;;;;;;;;;;;-0.10;99.90;;;;;;5096697;28;19912;-85
2021/12/07 02:08:22;;;;;;;;;;;0.10;99.90;;;;;;5098490;28;19923;-83
2021/12/07 02:10:49;;;;;;;;;;;-0.20;99.90;;;;;;5098816;28;19912;-84
2021/12/07 02:14:01;;;;;;;;;;;-0.20;99.90;;;;;;5098040;28;19963;-85
2021/12/07 02:16:07;;;;;;;;;;;-0.20;99.90;;;;;;5097857;28;19916;-83
2021/12/07 02:18:33;;;;;;;;;;;-0.20;99.90;;;;;;5098616;28;19913;-83
2021/12/07 02:21:13;;;;;;;;;;;0.30;99.90;;;;;;5098338;28;19924;-84
2021/12/07 02:23:40;;;;;;;;;;;-0.30;99.90;;;;;;5090751;28;19925;-85
2021/12/07 02:26:06;;;;;;;;;;;-0.20;99.90;;;;;;5092346;28;19925;-85
2021/12/07 02:28:38;;;;;;;;;;;0.20;99.90;;;;;;5090210;28;19924;-84
2021/12/07 02:31:05;;;;;;;;;;;-0.30;99.90;;;;;;5095895;28;19912;-85
2021/12/07 02:33:31;;;;;;;;;;;-0.30;99.90;;;;;;5093209;28;20126;-84
2021/12/07 02:35:58;;;;;;;;;;;-1.10;99.90;;;;;;5090637;28;20345;-85
2021/12/07 02:38:26;;;;;;;;;;;-0.30;99.90;;;;;;5089795;28;19924;-86
2021/12/07 02:40:52;;;;;;;;;;;-0.30;99.90;;;;;;5089440;28;19929;-85
2021/12/07 02:43:19;;;;;;;;;;;-0.30;99.90;;;;;;5088861;28;19931;-85
2021/12/07 02:45:45;;;;;;;;;;;-0.30;99.90;;;;;;5091164;28;19947;-85
2021/12/07 02:48:12;;;;;;;;;;;-0.30;99.90;;;;;;5086294;28;19956;-86
2021/12/07 02:50:38;;;;;;;;;;;-0.70;99.90;;;;;;5085894;28;19925;-87
2021/12/07 02:53:05;;;;;;;;;;;-0.30;99.90;;;;;;5090826;28;19925;-84
2021/12/07 02:55:34;;;;;;;;;;;-0.80;99.90;;;;;;5092906;28;19924;-85
2021/12/07 02:58:00;;;;;;;;;;;-0.50;99.90;;;;;;5092736;28;19930;-87
2021/12/07 03:00:35;;;;;;;;;;;-0.40;99.90;;;;;;5091873;28;19932;-86
2021/12/07 03:03:02;;;;;;;;;;;-0.30;99.90;;;;;;5090916;28;19925;-86
2021/12/07 03:05:40;;;;;;;;;;;-0.90;99.90;;;;;;5090148;28;19976;-86
2021/12/07 03:08:30;;;;;;;;;;;-0.40;99.90;;;;;;5091409;28;19924;-86
2021/12/07 03:27:25;;;;;;;;;;;-0.20;99.90;;;;;;5099442;28;19938;-82
2021/12/07 03:29:51;;;;;;;;;;;-0.10;99.90;;;;;;5099527;28;19948;-82
2021/12/07 03:32:18;;;;;;;;;;;-0.20;99.90;;;;;;5095980;28;19978;-83
2021/12/07 03:34:44;;;;;;;;;;;-0.20;99.90;;;;;;5098761;28;19954;-82
2021/12/07 03:37:11;;;;;;;;;;;-0.10;99.90;;;;;;5098184;28;19932;-82
2021/12/07 03:39:37;;;;;;;;;;;-0.20;99.90;;;;;;5099793;28;19909;-82
2021/12/07 03:42:04;;;;;;;;;;;-0.10;99.90;;;;;;5099551;28;19920;-82
2021/12/07 03:44:33;;;;;;;;;;;-0.20;99.90;;;;;;5097315;28;19931;-83
2021/12/07 03:47:01;;;;;;;;;;;-0.10;99.90;;;;;;5094194;28;21531;-83
2021/12/07 03:49:27;;;;;;;;;;;0.00;99.90;;;;;;5094638;28;19924;-83
2021/12/07 03:51:54;;;;;;;;;;;-0.10;99.90;;;;;;5093203;28;19929;-82
2021/12/07 03:54:20;;;;;;;;;;;0.00;99.90;;;;;;5094117;28;19925;-83
2021/12/07 03:56:47;;;;;;;;;;;-0.20;99.90;;;;;;5095125;28;19924;-83
2021/12/07 03:59:13;;;;;;;;;;;0.60;99.90;;;;;;5096103;28;19924;-83
2021/12/07 04:01:41;;;;;;;;;;;-0.20;99.90;;;;;;5097594;28;19958;-81
2021/12/07 04:04:08;;;;;;;;;;;0.10;99.90;;;;;;5097020;28;19912;-82
2021/12/07 04:06:35;;;;;;;;;;;0.10;99.90;;;;;;5098106;28;19935;-82
2021/12/07 04:09:02;;;;;;;;;;;0.10;99.90;;;;;;5100218;28;19923;-80
2021/12/07 04:11:28;;;;;;;;;;;0.10;99.90;;;;;;5101003;28;19915;-81
2021/12/07 04:13:55;;;;;;;;;;;0.10;99.90;;;;;;5096335;28;19929;-84
2021/12/07 04:16:21;;;;;;;;;;;0.10;99.90;;;;;;5094542;28;19931;-83
2021/12/07 04:18:49;;;;;;;;;;;0.10;99.90;;;;;;5098966;28;19932;-84
2021/12/07 04:21:16;;;;;;;;;;;-0.30;99.90;;;;;;5098673;28;19947;-83
2021/12/07 04:23:43;;;;;;;;;;;-0.10;99.90;;;;;;5098199;28;19925;-83
2021/12/07 04:26:10;;;;;;;;;;;0.10;99.90;;;;;;5095594;28;19924;-82
2021/12/07 04:28:37;;;;;;;;;;;0.10;99.90;;;;;;5095963;28;19924;-82
2021/12/07 04:31:04;;;;;;;;;;;0.10;99.90;;;;;;5096787;28;20001;-83
2021/12/07 04:33:31;;;;;;;;;;;0.10;99.90;;;;;;5096558;28;19946;-82
2021/12/07 04:35:59;;;;;;;;;;;0.10;99.90;;;;;;5096546;28;19912;-83
2021/12/07 04:38:25;;;;;;;;;;;0.00;99.90;;;;;;5095003;28;19925;-83
2021/12/07 04:40:52;;;;;;;;;;;0.00;99.90;;;;;;5094042;28;19924;-83
2021/12/07 04:43:19;;;;;;;;;;;0.00;99.90;;;;;;5094063;28;19945;-83
2021/12/07 04:45:58;;;;;;;;;;;0.00;99.90;;;;;;5095647;28;19913;-85
2021/12/07 04:49:07;;;;;;;;;;;0.00;99.90;;;;;;5097622;28;19942;-82
2021/12/07 04:59:34;;;;;;;;;;;0.10;99.90;;;;;;5094462;28;19931;-82
2021/12/07 05:02:01;;;;;;;;;;;0.10;99.90;;;;;;5093944;28;19931;-82
2021/12/07 05:04:31;;;;;;;;;;;0.00;99.90;;;;;;5095267;28;19933;-82
2021/12/07 05:07:06;;;;;;;;;;;0.10;99.90;;;;;;5098622;28;19924;-82
2021/12/07 05:09:52;;;;;;;;;;;0.20;99.90;;;;;;5098235;28;19931;-82
2021/12/07 05:12:27;;;;;;;;;;;0.10;99.90;;;;;;5095564;28;19983;-83
2021/12/07 05:15:00;;;;;;;;;;;0.10;99.90;;;;;;5093237;28;19924;-82
2021/12/07 05:17:45;;;;;;;;;;;0.10;99.90;;;;;;5093737;28;19925;-82
2021/12/07 05:39:28;;;;;;;;;;;-0.10;99.90;;;;;;5054545;28;20063;-83
2021/12/07 05:41:54;;;;;;;;;;;0.00;99.90;;;;;;5089223;28;19939;-83
2021/12/07 05:44:21;;;;;;;;;;;0.00;99.90;;;;;;5091508;28;19924;-82
2021/12/07 05:46:47;;;;;;;;;;;-0.10;99.90;;;;;;5093538;28;19928;-83
2021/12/07 05:49:14;;;;;;;;;;;-0.10;99.90;;;;;;5094546;28;19917;-83
2021/12/07 05:51:40;;;;;;;;;;;0.00;99.90;;;;;;5093012;28;19924;-83
2021/12/07 05:54:07;;;;;;;;;;;-0.10;99.90;;;;;;5093056;28;19931;-82
2021/12/07 05:56:35;;;;;;;;;;;-0.10;99.90;;;;;;5092799;28;19970;-83
2021/12/07 05:59:01;;;;;;;;;;;-0.20;99.90;;;;;;5090432;28;20302;-82
2021/12/07 06:01:28;;;;;;;;;;;-0.20;99.90;;;;;;5090319;28;19946;-82
2021/12/07 06:03:54;;;;;;;;;;;-0.10;99.90;;;;;;5091888;28;19994;-83
2021/12/07 06:06:20;;;;;;;;;;;-0.20;99.90;;;;;;5091854;28;19946;-83
2021/12/07 06:08:47;;;;;;;;;;;-0.20;99.90;;;;;;5091951;28;19928;-83
2021/12/07 06:11:13;;;;;;;;;;;-0.20;99.90;;;;;;5091897;28;20001;-83
2021/12/07 06:13:41;;;;;;;;;;;-0.20;99.90;;;;;;5092245;28;19924;-84
2021/12/07 06:16:08;;;;;;;;;;;-0.30;99.90;;;;;;5092663;28;19924;-83
2021/12/07 06:18:36;;;;;;;;;;;-0.30;99.90;;;;;;5092445;28;19928;-83
2021/12/07 06:21:02;;;;;;;;;;;-0.30;99.90;;;;;;5092485;28;19924;-84
2021/12/07 06:23:29;;;;;;;;;;;-0.30;99.90;;;;;;5091951;28;19924;-83
2021/12/07 06:25:56;;;;;;;;;;;-0.30;99.90;;;;;;5092125;28;19928;-84
2021/12/07 06:28:23;;;;;;;;;;;-0.30;99.90;;;;;;5095669;28;19928;-83
2021/12/07 06:30:51;;;;;;;;;;;-0.20;99.90;;;;;;5095196;28;19925;-83
2021/12/07 06:33:19;;;;;;;;;;;-0.20;99.90;;;;;;5098561;28;19909;-83
2021/12/07 06:35:47;;;;;;;;;;;-1.00;99.90;;;;;;5101154;28;19938;-83
2021/12/07 06:38:14;;;;;;;;;;;0.60;99.90;;;;;;5101465;28;19916;-83
2021/12/07 06:40:40;;;;;;;;;;;-0.50;99.90;;;;;;5101771;28;19912;-83
2021/12/07 06:43:07;;;;;;;;;;;-0.40;99.90;;;;;;5100696;28;19935;-83
2021/12/07 06:45:33;;;;;;;;;;;-0.40;99.90;;;;;;5099713;28;19924;-83
2021/12/07 06:48:08;;;;;;;;;;;-0.30;99.90;;;;;;5100954;28;19912;-82
2021/12/07 06:50:35;;;;;;;;;;;-0.40;99.90;;;;;;5102220;28;19954;-83
2021/12/07 06:53:01;;;;;;;;;;;-0.40;99.90;;;;;;5100142;28;19925;-84
2021/12/07 06:55:28;;;;;;;;;;;-0.40;99.90;;;;;;5095954;28;19924;-82
2021/12/07 06:57:54;;;;;;;;;;;-0.40;99.90;;;;;;5096098;28;19929;-82
2021/12/07 07:00:21;;;;;;;;;;;-0.30;99.90;;;;;;5094475;28;19989;-82
2021/12/07 07:02:48;;;;;;;;;;;-0.40;99.90;;;;;;5099377;28;19932;-83
2021/12/07 07:05:17;;;;;;;;;;;-0.50;99.90;;;;;;5099464;28;19925;-82
2021/12/07 07:07:43;;;;;;;;;;;-0.40;99.90;;;;;;5098291;28;19964;-82
2021/12/07 07:10:11;;;;;;;;;;;-0.40;99.90;;;;;;5096642;28;20008;-83
2021/12/07 07:12:38;;;;;;;;;;;-0.30;99.90;;;;;;5096253;28;19925;-83
2021/12/07 07:15:05;;;;;;;;;;;-0.30;99.90;;;;;;5094981;28;19925;-83
2021/12/07 07:17:31;;;;;;;;;;;-0.60;99.90;;;;;;5095339;28;19924;-83
2021/12/07 07:19:58;;;;;;;;;;;-0.20;99.90;;;;;;5096407;28;19971;-82
2021/12/07 07:22:25;;;;;;;;;;;-0.20;99.90;;;;;;5096299;28;20028;-83
2021/12/07 07:24:52;;;;;;;;;;;-0.20;99.90;;;;;;5096074;28;19925;-83
2021/12/07 07:27:19;;;;;;;;;;;-0.10;99.90;;;;;;5095997;28;19924;-82
2021/12/07 07:29:47;;;;;;;;;;;0.00;99.90;;;;;;5096812;28;19939;-84
2021/12/07 07:32:14;;;;;;;;;;;-0.10;99.90;;;;;;5096575;28;19950;-83
2021/12/07 07:34:40;;;;;;;;;;;-0.10;99.90;;;;;;5097691;28;19988;-83
2021/12/07 07:37:07;;;;;;;;;;;0.30;99.90;;;;;;5093731;28;19925;-82
2021/12/07 07:39:35;;;;;;;;;;;0.00;99.90;;;;;;5097409;28;19924;-81
2021/12/07 07:42:02;;;;;;;;;;;0.10;99.90;;;;;;5097696;28;19954;-83
2021/12/07 07:44:28;;;;;;;;;;;0.00;99.90;;;;;;5095129;28;19947;-80
2021/12/07 07:46:55;;;;;;;;;;;0.00;99.90;;;;;;5092139;28;19931;-83
2021/12/07 07:49:21;;;;;;;;;;;-0.70;99.90;;;;;;5092006;28;19925;-81
2021/12/07 07:51:48;;;;;;;;;;;0.10;99.90;;;;;;5095908;28;19909;-84
2021/12/07 07:54:17;;;;;;;;;;;-0.10;99.90;;;;;;5094190;28;19932;-82
2021/12/07 07:56:47;;;;;;;;;;;0.00;99.90;;;;;;5089472;28;20020;-83
2021/12/07 07:59:13;;;;;;;;;;;0.00;99.90;;;;;;5090109;28;20069;-82
2021/12/07 08:01:40;;;;;;;;;;;-0.10;99.90;;;;;;5087642;28;19946;-81
2021/12/07 08:04:06;;;;;;;;;;;0.00;99.90;;;;;;5086828;28;19928;-81
2021/12/07 08:06:34;;;;;;;;;;;0.30;99.90;;;;;;5087420;28;19947;-82
2021/12/07 08:09:00;;;;;;;;;;;-0.10;99.90;;;;;;5087921;28;19987;-83
2021/12/07 08:11:27;;;;;;;;;;;0.10;99.90;;;;;;5100205;28;19964;-83
2021/12/07 08:13:55;;;;;;;;;;;0.10;99.90;;;;;;5096169;28;19946;-82
2021/12/07 08:16:21;;;;;;;;;;;0.10;99.90;;;;;;5091662;28;19951;-83
2021/12/07 08:18:48;;;;;;;;;;;0.10;99.90;;;;;;5099360;28;19913;-83
2021/12/07 08:21:16;;;;;;;;;;;0.00;99.90;;;;;;5096231;28;19924;-83
2021/12/07 08:23:43;;;;;;;;;;;0.00;99.90;;;;;;5096703;28;19950;-83
2021/12/07 08:26:10;;;;;;;;;;;0.00;99.90;;;;;;5099655;28;19932;-83
2021/12/07 08:28:37;;;;;;;;;;;0.20;99.90;;;;;;5094225;28;19947;-83
2021/12/07 08:31:05;;;;;;;;;;;0.20;99.90;;;;;;5094924;28;19925;-83
2021/12/07 08:33:32;;;;;;;;;;;0.20;99.90;;;;;;5089973;28;19947;-83
2021/12/07 08:35:59;;;;;;;;;;;0.10;99.90;;;;;;5089437;28;19924;-82
2021/12/07 08:38:26;;;;;;;;;;;0.20;99.90;;;;;;5090290;28;20027;-83
2021/12/07 08:40:54;;;;;;;;;;;0.20;99.90;;;;;;5090291;28;19924;-82
2021/12/07 08:43:21;;;;;;;;;;;0.30;99.90;;;;;;5093336;28;19925;-82
2021/12/07 08:45:48;;;;;;;;;;;0.30;99.90;;;;;;5091643;28;19924;-82
2021/12/07 08:48:16;;;;;;;;;;;0.20;99.90;;;;;;5091940;28;19924;-81
2021/12/07 08:50:44;;;;;;;;;;;0.20;99.90;;;;;;5090686;28;19979;-82
2021/12/07 08:53:12;;;;;;;;;;;0.20;99.90;;;;;;5089018;28;19924;-81
2021/12/07 09:01:08;;;;;;;;;;;-0.10;99.90;;;;;;5083800;28;19927;-80
2021/12/07 09:03:36;;;;;;;;;;;0.40;99.90;;;;;;5090216;28;19935;-81
2021/12/07 09:06:03;;;;;;;;;;;0.30;99.90;;;;;;5087664;28;20337;-80
2021/12/07 09:08:30;;;;;;;;;;;0.30;99.90;;;;;;5095987;28;19944;-80
2021/12/07 09:10:56;;;;;;;;;;;0.70;99.90;;;;;;5091628;28;19951;-80
2021/12/07 09:13:24;;;;;;;;;;;0.30;99.90;;;;;;5091688;28;19940;-80
2021/12/07 09:15:51;;;;;;;;;;;0.20;99.90;;;;;;5089399;28;19944;-81
2021/12/07 09:18:17;;;;;;;;;;;0.20;99.90;;;;;;5092741;28;19924;-80
2021/12/07 09:20:45;;;;;;;;;;;-0.20;99.90;;;;;;5092809;28;19952;-83
2021/12/07 09:23:12;;;;;;;;;;;0.50;99.90;;;;;;5089884;28;19928;-82
2021/12/07 09:25:39;;;;;;;;;;;0.20;99.90;;;;;;5089178;28;19925;-82
2021/12/07 09:28:05;;;;;;;;;;;0.50;99.90;;;;;;5088513;28;19924;-82
2021/12/07 09:30:32;;;;;;;;;;;0.50;99.90;;;;;;5087911;28;19935;-83
2021/12/07 09:32:58;;;;;;;;;;;0.70;99.90;;;;;;5087074;28;19931;-82
2021/12/07 09:35:25;;;;;;;;;;;0.60;99.90;;;;;;5086708;28;19947;-83
2021/12/07 09:37:54;;;;;;;;;;;0.50;99.90;;;;;;5091898;28;19932;-83
2021/12/07 09:40:22;;;;;;;;;;;0.40;99.90;;;;;;5085317;28;19924;-83
2021/12/07 09:42:49;;;;;;;;;;;0.50;99.90;;;;;;5088077;28;19925;-83
2021/12/07 09:45:17;;;;;;;;;;;0.20;99.90;;;;;;5088203;28;19924;-82
2021/12/07 09:47:43;;;;;;;;;;;0.50;99.90;;;;;;5087283;28;19924;-83
2021/12/07 09:50:11;;;;;;;;;;;-0.10;99.90;;;;;;5084194;28;19924;-80
2021/12/07 09:52:38;;;;;;;;;;;0.60;99.90;;;;;;5081060;28;19932;-76
2021/12/07 09:55:06;;;;;;;;;;;0.40;99.90;;;;;;5079592;28;19974;-80
2021/12/07 09:57:33;;;;;;;;;;;0.60;99.90;;;;;;5081693;28;19925;-81
2021/12/07 09:59:59;;;;;;;;;;;0.60;99.90;;;;;;5082546;28;20022;-81
2021/12/07 10:02:26;;;;;;;;;;;0.20;99.90;;;;;;5083705;28;19956;-82
2021/12/07 10:04:52;;;;;;;;;;;0.60;99.90;;;;;;5082314;28;19924;-80
2021/12/07 10:07:19;;;;;;;;;;;0.70;99.90;;;;;;5083080;28;19955;-80
2021/12/07 10:09:56;;;;;;;;;;;0.70;99.90;;;;;;5083622;28;19924;-81
2021/12/07 10:12:24;;;;;;;;;;;0.70;99.90;;;;;;5092770;28;19931;-81
2021/12/07 10:14:51;;;;;;;;;;;0.90;99.90;;;;;;5088767;28;19979;-81
2021/12/07 10:17:21;;;;;;;;;;;0.80;99.90;;;;;;5086831;28;20042;-81
2021/12/07 10:19:48;;;;;;;;;;;0.80;99.90;;;;;;5084087;28;20441;-82
2021/12/07 10:22:16;;;;;;;;;;;0.90;99.90;;;;;;5084878;28;19925;-82
2021/12/07 10:24:47;;;;;;;;;;;0.70;99.90;;;;;;5086520;28;19925;-80
2021/12/07 10:27:14;;;;;;;;;;;0.70;99.90;;;;;;5091472;28;19954;-81
2021/12/07 10:29:42;;;;;;;;;;;0.60;99.90;;;;;;5091210;28;19932;-82
2021/12/07 10:32:09;;;;;;;;;;;0.90;99.90;;;;;;5084700;28;19924;-82
2021/12/07 10:34:37;;;;;;;;;;;0.90;99.90;;;;;;5079876;28;19925;-82
2021/12/07 10:37:07;;;;;;;;;;;0.90;99.90;;;;;;5079386;28;19924;-82
2021/12/07 10:39:36;;;;;;;;;;;0.90;99.90;;;;;;5085895;28;19924;-79
2021/12/07 10:42:03;;;;;;;;;;;0.80;99.90;;;;;;5093555;28;19952;-78
2021/12/07 10:44:31;;;;;;;;;;;0.90;99.90;;;;;;5096030;28;19935;-79
2021/12/07 10:46:59;;;;;;;;;;;0.90;99.90;;;;;;5094445;28;20014;-85
2021/12/07 10:49:29;;;;;;;;;;;1.40;99.90;;;;;;5091119;28;19925;-80
2021/12/07 10:51:58;;;;;;;;;;;1.00;99.90;;;;;;5093537;28;19909;-80
2021/12/07 10:54:25;;;;;;;;;;;0.80;99.90;;;;;;5095219;28;19931;-80
2021/12/07 10:56:52;;;;;;;;;;;0.40;99.90;;;;;;5089060;28;19925;-81
2021/12/07 10:59:19;;;;;;;;;;;1.00;99.90;;;;;;5087042;28;19935;-82
2021/12/07 11:01:47;;;;;;;;;;;0.90;99.90;;;;;;5088804;28;19925;-82
2021/12/07 11:04:26;;;;;;;;;;;0.80;99.90;;;;;;5089607;28;20027;-82
2021/12/07 11:07:10;;;;;;;;;;;0.80;99.90;;;;;;5091435;28;19924;-81
2021/12/07 11:09:37;;;;;;;;;;;0.90;99.90;;;;;;5090319;28;19924;-81
2021/12/07 11:12:08;;;;;;;;;;;0.50;99.90;;;;;;5092344;28;19924;-82
2021/12/07 11:14:39;;;;;;;;;;;0.90;99.90;;;;;;5093032;28;19924;-83
2021/12/07 11:17:05;;;;;;;;;;;0.90;99.90;;;;;;5092582;28;20279;-82
2021/12/07 11:19:33;;;;;;;;;;;1.00;99.90;;;;;;5091865;28;19932;-81
2021/12/07 11:22:00;;;;;;;;;;;1.00;99.90;;;;;;5089529;28;19970;-82
2021/12/07 11:24:34;;;;;;;;;;;1.00;99.90;;;;;;5091736;28;19924;-83
2021/12/07 11:29:49;;;;;;;;;;;0.70;99.90;;;;;;5089153;28;19974;-82
2021/12/07 11:32:16;;;;;;;;;;;1.00;99.90;;;;;;5086912;28;19924;-84
2021/12/07 11:34:45;;;;;;;;;;;1.00;99.90;;;;;;5085378;28;19924;-82
2021/12/07 11:37:13;;;;;;;;;;;1.10;99.90;;;;;;5085415;28;19970;-81
2021/12/07 11:39:46;;;;;;;;;;;0.40;99.90;;;;;;5085614;28;19935;-81
2021/12/07 11:42:16;;;;;;;;;;;1.20;99.90;;;;;;5087686;28;19924;-82
2021/12/07 11:44:48;;;;;;;;;;;1.00;99.90;;;;;;5087428;28;19984;-82
2021/12/07 11:47:15;;;;;;;;;;;0.90;99.90;;;;;;5089394;28;19931;-81
2021/12/07 11:49:41;;;;;;;;;;;0.70;99.90;;;;;;5087293;28;19931;-83
2021/12/07 11:52:09;;;;;;;;;;;1.10;99.90;;;;;;5086565;28;19929;-82
2021/12/07 11:54:37;;;;;;;;;;;1.20;99.90;;;;;;5086030;28;19931;-81
2021/12/07 11:57:04;;;;;;;;;;;1.00;99.90;;;;;;5086017;28;19970;-83
2021/12/07 11:59:31;;;;;;;;;;;1.30;99.90;;;;;;5085306;28;19924;-80
2021/12/07 12:01:57;;;;;;;;;;;1.40;99.90;;;;;;5090347;28;19929;-80
2021/12/07 12:04:24;;;;;;;;;;;1.10;99.90;;;;;;5092593;28;19932;-79
2021/12/07 12:06:51;;;;;;;;;;;0.90;99.90;;;;;;5094230;28;19932;-83
2021/12/07 12:09:20;;;;;;;;;;;1.10;99.90;;;;;;5093061;28;19928;-81
2021/12/07 12:11:52;;;;;;;;;;;1.50;99.90;;;;;;5093730;28;19932;-81
2021/12/07 12:14:27;;;;;;;;;;;1.10;99.90;;;;;;5092739;28;19936;-79
2021/12/07 12:16:58;;;;;;;;;;;1.20;99.90;;;;;;5094413;28;19924;-82
2021/12/07 12:19:32;;;;;;;;;;;1.20;99.90;;;;;;5092124;28;19924;-82
2021/12/07 12:22:01;;;;;;;;;;;1.20;99.90;;;;;;5090372;28;19925;-80
2021/12/07 12:24:32;;;;;;;;;;;1.20;99.90;;;;;;5087957;28;19935;-82
2021/12/07 12:27:07;;;;;;;;;;;1.20;99.90;;;;;;5088006;28;19955;-82
2021/12/07 12:29:34;;;;;;;;;;;1.20;99.90;;;;;;5086979;28;19924;-82
2021/12/07 12:32:01;;;;;;;;;;;1.10;99.90;;;;;;5086281;28;19947;-82
2021/12/07 12:34:28;;;;;;;;;;;0.90;99.90;;;;;;5089127;28;19928;-82
2021/12/07 12:37:00;;;;;;;;;;;0.80;99.90;;;;;;5093506;28;19976;-81
2021/12/07 12:39:45;;;;;;;;;;;1.00;99.90;;;;;;5090207;28;19958;-82
2021/12/07 12:42:15;;;;;;;;;;;1.00;99.90;;;;;;5098942;28;19940;-82
2021/12/07 12:44:42;;;;;;;;;;;1.20;99.90;;;;;;5098742;28;19921;-81
2021/12/07 12:47:08;;;;;;;;;;;1.10;99.90;;;;;;5095353;28;19924;-81
2021/12/07 12:49:37;;;;;;;;;;;1.10;99.90;;;;;;5089577;28;19933;-82
2021/12/07 12:52:04;;;;;;;;;;;1.10;99.90;;;;;;5084747;28;20018;-81
2021/12/07 12:54:37;;;;;;;;;;;1.20;99.90;;;;;;5090005;28;19912;-79
2021/12/07 12:57:13;;;;;;;;;;;0.90;99.90;;;;;;5091628;28;19932;-83
2021/12/07 12:59:41;;;;;;;;;;;1.20;99.90;;;;;;5086719;28;19925;-83
2021/12/07 13:02:08;;;;;;;;;;;0.40;99.90;;;;;;5089061;28;20333;-81
2021/12/07 13:04:34;;;;;;;;;;;1.30;99.90;;;;;;5089689;28;19924;-84
2021/12/07 13:07:23;;;;;;;;;;;1.30;99.90;;;;;;5089840;28;19959;-82
2021/12/07 13:09:54;;;;;;;;;;;1.30;99.90;;;;;;5085490;28;19929;-82
2021/12/07 13:12:26;;;;;;;;;;;1.30;99.90;;;;;;5086970;28;19925;-84
2021/12/07 13:15:00;;;;;;;;;;;1.40;99.90;;;;;;5081192;28;19947;-82
2021/12/07 13:17:29;;;;;;;;;;;1.30;99.90;;;;;;5082325;28;19924;-83
2021/12/07 13:20:14;;;;;;;;;;;1.50;99.90;;;;;;5082348;28;19925;-82
2021/12/07 13:22:43;;;;;;;;;;;1.30;99.90;;;;;;5082809;28;19924;-81
2021/12/07 13:25:11;;;;;;;;;;;1.30;99.90;;;;;;5079100;28;19932;-81
2021/12/07 13:27:56;;;;;;;;;;;0.70;99.90;;;;;;5079127;28;20307;-82
2021/12/07 13:30:23;;;;;;;;;;;1.10;99.90;;;;;;5079497;28;19947;-81
2021/12/07 13:33:02;;;;;;;;;;;0.80;99.90;;;;;;5078970;28;19924;-82
2021/12/07 13:35:30;;;;;;;;;;;1.20;99.90;;;;;;5078505;28;20395;-81
2021/12/07 13:37:56;;;;;;;;;;;1.00;99.90;;;;;;5088118;28;19947;-80
2021/12/07 13:40:24;;;;;;;;;;;1.20;99.90;;;;;;5084189;28;19967;-83
2021/12/07 13:42:53;;;;;;;;;;;1.20;99.90;;;;;;5078906;28;20449;-83
2021/12/07 13:45:20;;;;;;;;;;;1.20;99.90;;;;;;5079532;28;20303;-82
2021/12/07 13:47:49;;;;;;;;;;;1.20;99.90;;;;;;5078866;28;19963;-81
2021/12/07 13:50:16;;;;;;;;;;;1.00;99.90;;;;;;5080290;28;19925;-82
2021/12/07 13:52:45;;;;;;;;;;;0.30;99.90;;;;;;5080559;28;19924;-80
2021/12/07 13:55:13;;;;;;;;;;;1.20;99.90;;;;;;5078500;28;19924;-83
2021/12/07 13:57:40;;;;;;;;;;;1.10;99.90;;;;;;5078906;28;19931;-82
2021/12/07 14:00:11;;;;;;;;;;;1.20;99.90;;;;;;5078638;28;19925;-81
2021/12/07 14:02:38;;;;;;;;;;;1.20;99.90;;;;;;5079140;28;19994;-80
2021/12/07 14:05:10;;;;;;;;;;;1.20;99.90;;;;;;5078234;28;19924;-81
2021/12/07 14:07:37;;;;;;;;;;;1.10;99.90;;;;;;5078577;28;19970;-82
2021/12/07 14:10:04;;;;;;;;;;;1.00;99.90;;;;;;5078787;28;19924;-82
2021/12/07 14:12:31;;;;;;;;;;;1.00;99.90;;;;;;5078222;28;19984;-81
2021/12/07 14:15:05;;;;;;;;;;;0.90;99.90;;;;;;5080463;28;19925;-81
2021/12/07 14:17:38;;;;;;;;;;;0.50;99.90;;;;;;5080129;28;19935;-81
2021/12/07 14:20:05;;;;;;;;;;;1.10;99.90;;;;;;5080798;28;19960;-82
2021/12/07 14:22:31;;;;;;;;;;;1.10;99.90;;;;;;5083657;28;19997;-80
2021/12/07 14:24:58;;;;;;;;;;;1.10;99.90;;;;;;5084171;28;19947;-81
2021/12/07 14:27:24;;;;;;;;;;;1.00;99.90;;;;;;5088375;28;19932;-80
2021/12/07 14:29:51;;;;;;;;;;;1.10;99.90;;;;;;5087753;28;19925;-80
2021/12/07 14:32:17;;;;;;;;;;;1.10;99.90;;;;;;5081280;28;19958;-81
2021/12/07 14:34:45;;;;;;;;;;;1.00;99.90;;;;;;5078084;28;19925;-80
2021/12/07 14:37:12;;;;;;;;;;;1.00;99.90;;;;;;5078603;28;19925;-82
2021/12/07 14:39:40;;;;;;;;;;;1.00;99.90;;;;;;5079337;28;19929;-81
2021/12/07 14:42:07;;;;;;;;;;;0.60;99.90;;;;;;5087296;28;19924;-82
2021/12/07 14:44:35;;;;;;;;;;;1.00;99.90;;;;;;5087652;28;19924;-82
2021/12/07 14:47:04;;;;;;;;;;;1.10;99.90;;;;;;5088378;28;19925;-81
2021/12/07 14:49:31;;;;;;;;;;;1.20;99.90;;;;;;5094847;28;20027;-81
2021/12/07 14:51:59;;;;;;;;;;;1.00;99.90;;;;;;5089744;28;19952;-80
2021/12/07 14:54:26;;;;;;;;;;;1.10;99.90;;;;;;5087520;28;20337;-81
2021/12/07 14:56:53;;;;;;;;;;;1.30;99.90;;;;;;5085018;28;19993;-81
2021/12/07 14:59:21;;;;;;;;;;;1.20;99.90;;;;;;5084980;28;19925;-83
2021/12/07 15:01:48;;;;;;;;;;;;;;;;;;5091029;28;19931;-82
2021/12/07 15:04:15;;;;;;;;;;;1.10;99.90;;;;;;5093544;28;19924;-82
2021/12/07 15:06:43;;;;;;;;;;;1.00;99.90;;;;;;5093578;28;19932;-82
2021/12/07 15:09:11;;;;;;;;;;;1.00;99.90;;;;;;5092522;28;19929;-82
2021/12/07 15:11:38;;;;;;;;;;;0.90;99.90;;;;;;5089741;28;19932;-82
2021/12/07 15:14:05;;;;;;;;;;;1.10;99.90;;;;;;5085820;28;20276;-83
2021/12/07 15:16:32;;;;;;;;;;;0.90;99.90;;;;;;5093759;28;19924;-80
2021/12/07 15:18:58;;;;;;;;;;;0.90;99.90;;;;;;5094136;28;19934;-82
2021/12/07 15:21:28;;;;;;;;;;;1.20;99.90;;;;;;5091162;28;19990;-82
2021/12/07 15:23:56;;;;;;;;;;;1.10;99.90;;;;;;5091228;28;19936;-82
2021/12/07 15:26:25;;;;;;;;;;;0.90;99.90;;;;;;5096373;28;19951;-82
2021/12/07 15:28:52;;;;;;;;;;;1.10;99.90;;;;;;5094814;28;19924;-81
2021/12/07 15:31:19;;;;;;;;;;;1.10;99.90;;;;;;5095204;28;19928;-81
2021/12/07 15:33:45;;;;;;;;;;;1.20;99.90;;;;;;5095532;28;19925;-81
2021/12/07 15:36:15;;;;;;;;;;;1.00;99.90;;;;;;5096192;28;19988;-82
2021/12/07 15:38:41;;;;;;;;;;;0.90;99.90;;;;;;5093775;28;19924;-82
2021/12/07 15:41:08;;;;;;;;;;;2.20;99.90;;;;;;5094920;28;19928;-82
2021/12/07 15:43:39;;;;;;;;;;;1.10;99.90;;;;;;5091671;28;19924;-82
2021/12/07 15:46:06;;;;;;;;;;;1.10;99.90;;;;;;5089991;28;19932;-82
2021/12/07 15:48:33;;;;;;;;;;;1.00;99.90;;;;;;5088730;28;19936;-82
2021/12/07 15:51:01;;;;;;;;;;;1.00;99.90;;;;;;5090071;28;19924;-81
2021/12/07 15:53:28;;;;;;;;;;;1.00;99.90;;;;;;5087690;28;19947;-80